PWSweather.com
Personal Weather Stations
Station Observations

PoschiavoCH

Lat: 46.31962499999999, Lon: 10.066551000000004

Elevation: 3517

Station Type: WH 1080

http://www.meteoposchiavo.com

High Low Average
Temperature 59.0°F15.0°C 35.0°F1.7°C 47.6°F8.7°C
Dew Point 43.5°F6.4°C 30.4°F-0.9°C 37.2°F2.9°C
Winds 3.5 mph 5.6 kmh Calm Calm Calm SSECalm SSE
Wind Gusts 6.9 mph11.1 kmh -- 1.0 mph1.6 kmh
Humidity 87% 39% 69%
Pressure 26.54 in898.7 mb 26.37 in893.0 mb -
Precipitation 0.00 in0.0 mm - -
Hour Temp Dew Point Humidity Winds Wind Gusts Pressure Precip Precip Rate Daily Precip Total
12:00 AM 39.0°F3.9°C 33.4°F0.8°C 80% Calm Calm -- 26.54 in898.7 mb - 0.00 in0.0 mm 0.00 in0.0 mm
12:10 AM 40.0°F4.4°C 34.3°F1.3°C 80% Calm Calm -- 26.54 in898.7 mb - 0.00 in0.0 mm 0.00 in0.0 mm
12:15 AM 39.0°F3.9°C 33.7°F0.9°C 81% Calm Calm -- 26.54 in898.7 mb - 0.00 in0.0 mm 0.00 in0.0 mm
12:20 AM 40.0°F4.4°C 34.3°F1.3°C 80% Calm Calm -- 26.54 in898.7 mb - 0.00 in0.0 mm 0.00 in0.0 mm
12:25 AM 40.0°F4.4°C 34.3°F1.3°C 80% Calm Calm -- 26.54 in898.7 mb - 0.00 in0.0 mm 0.00 in0.0 mm
12:30 AM 39.0°F3.9°C 34.3°F1.3°C 83% Calm Calm -- 26.54 in898.7 mb - 0.00 in0.0 mm 0.00 in0.0 mm
12:35 AM 39.0°F3.9°C 34.0°F1.1°C 82% Calm Calm -- 26.54 in898.7 mb - 0.00 in0.0 mm 0.00 in0.0 mm
12:40 AM 39.0°F3.9°C 34.0°F1.1°C 82% Calm Calm -- 26.54 in898.7 mb - 0.00 in0.0 mm 0.00 in0.0 mm
12:45 AM 39.0°F3.9°C 33.7°F0.9°C 81% Calm Calm -- 26.54 in898.7 mb - 0.00 in0.0 mm 0.00 in0.0 mm
12:50 AM 39.0°F3.9°C 33.7°F0.9°C 81% Calm Calm -- 26.53 in898.4 mb - 0.00 in0.0 mm 0.00 in0.0 mm
12:55 AM 39.0°F3.9°C 34.0°F1.1°C 82% Calm Calm -- 26.53 in898.4 mb - 0.00 in0.0 mm 0.00 in0.0 mm
01:00 AM 39.0°F3.9°C 34.0°F1.1°C 82% Calm Calm -- 26.53 in898.4 mb - 0.00 in0.0 mm 0.00 in0.0 mm
01:10 AM 39.0°F3.9°C 34.0°F1.1°C 82% Calm Calm -- 26.53 in898.4 mb - 0.00 in0.0 mm 0.00 in0.0 mm
01:15 AM 39.0°F3.9°C 33.7°F0.9°C 81% Calm Calm -- 26.53 in898.4 mb - 0.00 in0.0 mm 0.00 in0.0 mm
01:20 AM 38.0°F3.3°C 33.0°F0.6°C 82% Calm Calm -- 26.52 in898.1 mb - 0.00 in0.0 mm 0.00 in0.0 mm
01:25 AM 39.0°F3.9°C 33.7°F0.9°C 81% Calm Calm -- 26.52 in898.1 mb - 0.00 in0.0 mm 0.00 in0.0 mm
01:30 AM 39.0°F3.9°C 34.0°F1.1°C 82% Calm Calm -- 26.52 in898.1 mb - 0.00 in0.0 mm 0.00 in0.0 mm
01:35 AM 39.0°F3.9°C 34.0°F1.1°C 82% Calm Calm -- 26.52 in898.1 mb - 0.00 in0.0 mm 0.00 in0.0 mm
01:40 AM 38.5°F3.6°C 33.8°F1.0°C 83% Calm Calm -- 26.52 in898.1 mb - 0.00 in0.0 mm 0.00 in0.0 mm
01:45 AM 38.0°F3.3°C 33.6°F0.9°C 84% Calm Calm -- 26.52 in898.1 mb - 0.00 in0.0 mm 0.00 in0.0 mm
01:50 AM 38.0°F3.3°C 33.3°F0.7°C 83% Calm Calm -- 26.52 in898.1 mb - 0.00 in0.0 mm 0.00 in0.0 mm
01:55 AM 38.0°F3.3°C 33.0°F0.6°C 82% Calm Calm -- 26.52 in898.1 mb - 0.00 in0.0 mm 0.00 in0.0 mm
02:00 AM 38.0°F3.3°C 33.0°F0.6°C 82% Calm Calm -- 26.52 in898.1 mb - 0.00 in0.0 mm 0.00 in0.0 mm
02:10 AM 37.0°F2.8°C 31.7°F-0.2°C 81% Calm Calm -- 26.51 in897.7 mb - 0.00 in0.0 mm 0.00 in0.0 mm
02:15 AM 38.0°F3.3°C 32.7°F0.4°C 81% Calm Calm -- 26.51 in897.7 mb - 0.00 in0.0 mm 0.00 in0.0 mm
02:20 AM 38.0°F3.3°C 33.0°F0.6°C 82% Calm Calm -- 26.51 in897.7 mb - 0.00 in0.0 mm 0.00 in0.0 mm
02:25 AM 38.0°F3.3°C 33.0°F0.6°C 82% Calm Calm -- 26.51 in897.7 mb - 0.00 in0.0 mm 0.00 in0.0 mm
02:30 AM 37.0°F2.8°C 32.6°F0.3°C 84% Calm Calm -- 26.51 in897.7 mb - 0.00 in0.0 mm 0.00 in0.0 mm
02:35 AM 37.0°F2.8°C 31.7°F-0.2°C 81% Calm Calm -- 26.51 in897.7 mb - 0.00 in0.0 mm 0.00 in0.0 mm
02:40 AM 37.0°F2.8°C 32.3°F0.2°C 83% Calm Calm -- 26.51 in897.7 mb - 0.00 in0.0 mm 0.00 in0.0 mm
02:45 AM 37.0°F2.8°C 32.0°F0.0°C 82% Calm Calm -- 26.51 in897.7 mb - 0.00 in0.0 mm 0.00 in0.0 mm
02:50 AM 37.0°F2.8°C 31.7°F-0.2°C 81% Calm Calm -- 26.51 in897.7 mb - 0.00 in0.0 mm 0.00 in0.0 mm
02:55 AM 37.0°F2.8°C 31.4°F-0.3°C 80% Calm Calm -- 26.51 in897.7 mb - 0.00 in0.0 mm 0.00 in0.0 mm
03:00 AM 36.0°F2.2°C 31.3°F-0.4°C 83% Calm Calm -- 26.51 in897.7 mb - 0.00 in0.0 mm 0.00 in0.0 mm
03:10 AM 37.0°F2.8°C 31.7°F-0.2°C 81% Calm Calm -- 26.51 in897.7 mb - 0.00 in0.0 mm 0.00 in0.0 mm
03:15 AM 37.0°F2.8°C 32.6°F0.3°C 84% Calm Calm -- 26.51 in897.7 mb - 0.00 in0.0 mm 0.00 in0.0 mm
03:20 AM 36.8°F2.7°C 32.4°F0.2°C 84% Calm Calm -- 26.51 in897.7 mb - 0.00 in0.0 mm 0.00 in0.0 mm
03:25 AM 36.0°F2.2°C 31.3°F-0.4°C 83% Calm Calm -- 26.50 in897.4 mb - 0.00 in0.0 mm 0.00 in0.0 mm
03:30 AM 36.0°F2.2°C 31.3°F-0.4°C 83% Calm Calm -- 26.50 in897.4 mb - 0.00 in0.0 mm 0.00 in0.0 mm
03:35 AM 36.0°F2.2°C 31.9°F-0.1°C 85% Calm Calm -- 26.50 in897.4 mb - 0.00 in0.0 mm 0.00 in0.0 mm
03:40 AM 36.0°F2.2°C 31.3°F-0.4°C 83% Calm Calm -- 26.51 in897.7 mb - 0.00 in0.0 mm 0.00 in0.0 mm
03:45 AM 36.0°F2.2°C 31.9°F-0.1°C 85% Calm Calm -- 26.50 in897.4 mb - 0.00 in0.0 mm 0.00 in0.0 mm
03:50 AM 36.0°F2.2°C 31.6°F-0.2°C 84% Calm Calm -- 26.51 in897.7 mb - 0.00 in0.0 mm 0.00 in0.0 mm
03:55 AM 36.0°F2.2°C 31.3°F-0.4°C 83% Calm Calm -- 26.51 in897.7 mb - 0.00 in0.0 mm 0.00 in0.0 mm
04:00 AM 37.0°F2.8°C 32.3°F0.2°C 83% Calm Calm -- 26.50 in897.4 mb - 0.00 in0.0 mm 0.00 in0.0 mm
04:10 AM 36.0°F2.2°C 30.7°F-0.7°C 81% Calm Calm -- 26.50 in897.4 mb - 0.00 in0.0 mm 0.00 in0.0 mm
04:15 AM 36.0°F2.2°C 31.6°F-0.2°C 84% Calm Calm -- 26.50 in897.4 mb - 0.00 in0.0 mm 0.00 in0.0 mm
04:20 AM 36.0°F2.2°C 32.2°F0.1°C 86% Calm Calm -- 26.49 in897.1 mb - 0.00 in0.0 mm 0.00 in0.0 mm
04:25 AM 36.0°F2.2°C 32.2°F0.1°C 86% Calm Calm -- 26.49 in897.1 mb - 0.00 in0.0 mm 0.00 in0.0 mm
04:30 AM 36.0°F2.2°C 32.2°F0.1°C 86% Calm Calm -- 26.49 in897.1 mb - 0.00 in0.0 mm 0.00 in0.0 mm
04:35 AM 35.0°F1.7°C 31.2°F-0.4°C 86% Calm Calm -- 26.49 in897.1 mb - 0.00 in0.0 mm 0.00 in0.0 mm
04:40 AM 35.0°F1.7°C 31.5°F-0.3°C 87% Calm Calm -- 26.49 in897.1 mb - 0.00 in0.0 mm 0.00 in0.0 mm
04:45 AM 35.0°F1.7°C 31.2°F-0.4°C 86% Calm Calm -- 26.49 in897.1 mb - 0.00 in0.0 mm 0.00 in0.0 mm
04:50 AM 35.0°F1.7°C 31.5°F-0.3°C 87% Calm Calm -- 26.49 in897.1 mb - 0.00 in0.0 mm 0.00 in0.0 mm
04:55 AM 35.0°F1.7°C 31.5°F-0.3°C 87% Calm Calm -- 26.49 in897.1 mb - 0.00 in0.0 mm 0.00 in0.0 mm
05:00 AM 36.0°F2.2°C 31.6°F-0.2°C 84% Calm Calm -- 26.49 in897.1 mb - 0.00 in0.0 mm 0.00 in0.0 mm
05:10 AM 35.0°F1.7°C 30.9°F-0.6°C 85% Calm Calm -- 26.49 in897.1 mb - 0.00 in0.0 mm 0.00 in0.0 mm
05:15 AM 35.0°F1.7°C 31.2°F-0.4°C 86% Calm Calm -- 26.49 in897.1 mb - 0.00 in0.0 mm 0.00 in0.0 mm
05:20 AM 35.0°F1.7°C 31.2°F-0.4°C 86% Calm Calm -- 26.50 in897.4 mb - 0.00 in0.0 mm 0.00 in0.0 mm
05:25 AM 35.0°F1.7°C 31.2°F-0.4°C 86% Calm Calm -- 26.50 in897.4 mb - 0.00 in0.0 mm 0.00 in0.0 mm
05:30 AM 35.0°F1.7°C 31.5°F-0.3°C 87% Calm Calm -- 26.50 in897.4 mb - 0.00 in0.0 mm 0.00 in0.0 mm
05:35 AM 35.0°F1.7°C 31.2°F-0.4°C 86% Calm Calm -- 26.50 in897.4 mb - 0.00 in0.0 mm 0.00 in0.0 mm
05:40 AM 35.0°F1.7°C 31.2°F-0.4°C 86% Calm Calm -- 26.49 in897.1 mb - 0.00 in0.0 mm 0.00 in0.0 mm
05:45 AM 36.0°F2.2°C 32.2°F0.1°C 86% Calm Calm -- 26.50 in897.4 mb - 0.00 in0.0 mm 0.00 in0.0 mm
05:50 AM 36.0°F2.2°C 32.2°F0.1°C 86% Calm Calm -- 26.50 in897.4 mb - 0.00 in0.0 mm 0.00 in0.0 mm
05:55 AM 36.0°F2.2°C 32.2°F0.1°C 86% Calm Calm -- 26.50 in897.4 mb - 0.00 in0.0 mm 0.00 in0.0 mm
06:00 AM 35.0°F1.7°C 31.2°F-0.4°C 86% Calm Calm -- 26.49 in897.1 mb - 0.00 in0.0 mm 0.00 in0.0 mm
06:10 AM 35.0°F1.7°C 31.5°F-0.3°C 87% Calm Calm -- 26.50 in897.4 mb - 0.00 in0.0 mm 0.00 in0.0 mm
06:15 AM 35.0°F1.7°C 30.4°F-0.9°C 83% Calm Calm -- 26.50 in897.4 mb - 0.00 in0.0 mm 0.00 in0.0 mm
06:20 AM 35.0°F1.7°C 30.4°F-0.9°C 83% Calm Calm -- 26.50 in897.4 mb - 0.00 in0.0 mm 0.00 in0.0 mm
06:25 AM 35.0°F1.7°C 30.4°F-0.9°C 83% Calm Calm -- 26.50 in897.4 mb - 0.00 in0.0 mm 0.00 in0.0 mm
06:30 AM 35.0°F1.7°C 30.4°F-0.9°C 83% Calm Calm -- 26.50 in897.4 mb - 0.00 in0.0 mm 0.00 in0.0 mm
06:35 AM 36.0°F2.2°C 31.0°F-0.6°C 82% Calm Calm -- 26.50 in897.4 mb - 0.00 in0.0 mm 0.00 in0.0 mm
06:40 AM 36.0°F2.2°C 31.6°F-0.2°C 84% Calm Calm -- 26.50 in897.4 mb - 0.00 in0.0 mm 0.00 in0.0 mm
06:45 AM 36.0°F2.2°C 31.9°F-0.1°C 85% Calm Calm -- 26.50 in897.4 mb - 0.00 in0.0 mm 0.00 in0.0 mm
06:50 AM 36.0°F2.2°C 32.2°F0.1°C 86% Calm Calm -- 26.50 in897.4 mb - 0.00 in0.0 mm 0.00 in0.0 mm
06:55 AM 36.0°F2.2°C 31.6°F-0.2°C 84% Calm Calm -- 26.50 in897.4 mb - 0.00 in0.0 mm 0.00 in0.0 mm
07:00 AM 35.0°F1.7°C 30.7°F-0.7°C 84% Calm Calm -- 26.50 in897.4 mb - 0.00 in0.0 mm 0.00 in0.0 mm
07:10 AM 35.0°F1.7°C 30.7°F-0.7°C 84% Calm Calm -- 26.49 in897.1 mb - 0.00 in0.0 mm 0.00 in0.0 mm
07:15 AM 35.0°F1.7°C 30.9°F-0.6°C 85% Calm Calm -- 26.49 in897.1 mb - 0.00 in0.0 mm 0.00 in0.0 mm
07:20 AM 36.0°F2.2°C 31.9°F-0.1°C 85% Calm Calm -- 26.49 in897.1 mb - 0.00 in0.0 mm 0.00 in0.0 mm
07:25 AM 36.0°F2.2°C 31.3°F-0.4°C 83% Calm Calm -- 26.50 in897.4 mb - 0.00 in0.0 mm 0.00 in0.0 mm
07:30 AM 37.0°F2.8°C 32.3°F0.2°C 83% Calm Calm -- 26.49 in897.1 mb - 0.00 in0.0 mm 0.00 in0.0 mm
07:35 AM 37.0°F2.8°C 32.9°F0.5°C 85% Calm Calm -- 26.50 in897.4 mb - 0.00 in0.0 mm 0.00 in0.0 mm
07:40 AM 42.0°F5.6°C 37.8°F3.2°C 85% Calm Calm -- 26.49 in897.1 mb - 0.00 in0.0 mm 0.00 in0.0 mm
07:45 AM 42.5°F5.8°C 33.4°F0.8°C 70% Calm Calm -- 26.49 in897.1 mb - 0.00 in0.0 mm 0.00 in0.0 mm
07:50 AM 46.0°F7.8°C 33.7°F0.9°C 62% Calm Calm -- 26.49 in897.1 mb - 0.00 in0.0 mm 0.00 in0.0 mm
07:55 AM 49.0°F9.4°C 35.7°F2.1°C 60% Calm Calm -- 26.48 in896.7 mb - 0.00 in0.0 mm 0.00 in0.0 mm
08:00 AM 49.0°F9.4°C 35.7°F2.1°C 60% Calm Calm -- 26.47 in896.4 mb - 0.00 in0.0 mm 0.00 in0.0 mm
08:10 AM 52.2°F11.2°C 35.6°F2.0°C 53% Calm Calm -- 26.47 in896.4 mb - 0.00 in0.0 mm 0.00 in0.0 mm
08:15 AM 53.0°F11.7°C 35.8°F2.1°C 52% Calm Calm -- 26.46 in896.0 mb - 0.00 in0.0 mm 0.00 in0.0 mm
08:20 AM 54.0°F12.2°C 36.3°F2.4°C 51% Calm Calm -- 26.46 in896.0 mb - 0.00 in0.0 mm 0.00 in0.0 mm
08:25 AM 52.0°F11.1°C 34.4°F1.3°C 51% Calm Calm -- 26.46 in896.0 mb - 0.00 in0.0 mm 0.00 in0.0 mm
08:30 AM 53.0°F11.7°C 35.3°F1.8°C 51% Calm Calm -- 26.46 in896.0 mb - 0.00 in0.0 mm 0.00 in0.0 mm
08:35 AM 52.7°F11.5°C 35.6°F2.0°C 52% Calm Calm -- 26.46 in896.0 mb - 0.00 in0.0 mm 0.00 in0.0 mm
08:40 AM 52.0°F11.1°C 35.4°F1.9°C 53% Calm Calm -- 26.46 in896.0 mb - 0.00 in0.0 mm 0.00 in0.0 mm
08:45 AM 53.0°F11.7°C 33.3°F0.7°C 47% Calm Calm -- 26.45 in895.7 mb - 0.00 in0.0 mm 0.00 in0.0 mm
08:50 AM 54.0°F12.2°C 34.7°F1.5°C 48% Calm Calm 1.2 mph1.9 kmh 26.45 in895.7 mb - 0.00 in0.0 mm 0.00 in0.0 mm
08:55 AM 54.0°F12.2°C 35.3°F1.8°C 49% Calm Calm 1.2 mph1.9 kmh 26.44 in895.4 mb - 0.00 in0.0 mm 0.00 in0.0 mm
09:00 AM 54.8°F12.7°C 37.0°F2.8°C 51% Calm Calm 1.2 mph1.9 kmh 26.44 in895.4 mb - 0.00 in0.0 mm 0.00 in0.0 mm
09:10 AM 55.0°F12.8°C 35.7°F2.1°C 48% Calm Calm 1.2 mph1.9 kmh 26.45 in895.7 mb - 0.00 in0.0 mm 0.00 in0.0 mm
09:15 AM 56.0°F13.3°C 33.8°F1.0°C 43% Calm Calm -- 26.44 in895.4 mb - 0.00 in0.0 mm 0.00 in0.0 mm
09:20 AM 59.0°F15.0°C 34.1°F1.2°C 39% Calm Calm -- 26.44 in895.4 mb - 0.00 in0.0 mm 0.00 in0.0 mm
09:25 AM 59.0°F15.0°C 36.5°F2.5°C 43% Calm Calm 1.2 mph1.9 kmh 26.43 in895.0 mb - 0.00 in0.0 mm 0.00 in0.0 mm
09:30 AM 59.0°F15.0°C 36.5°F2.5°C 43% Calm Calm 1.2 mph1.9 kmh 26.43 in895.0 mb - 0.00 in0.0 mm 0.00 in0.0 mm
09:35 AM 59.0°F15.0°C 36.5°F2.5°C 43% Calm Calm 1.2 mph1.9 kmh 26.43 in895.0 mb - 0.00 in0.0 mm 0.00 in0.0 mm
09:40 AM 57.0°F13.9°C 35.9°F2.2°C 45% Calm Calm 1.2 mph1.9 kmh 26.43 in895.0 mb - 0.00 in0.0 mm 0.00 in0.0 mm
09:45 AM 56.0°F13.3°C 36.6°F2.6°C 48% Calm Calm 1.2 mph1.9 kmh 26.42 in894.7 mb - 0.00 in0.0 mm 0.00 in0.0 mm
09:50 AM 56.0°F13.3°C 34.9°F1.6°C 45% 2.3 mph WSW3.7 kmh WSW 2.3 mph3.7 kmh 26.42 in894.7 mb - 0.00 in0.0 mm 0.00 in0.0 mm
09:55 AM 55.2°F12.9°C 35.3°F1.8°C 47% 2.3 mph WSW3.7 kmh WSW 2.3 mph3.7 kmh 26.42 in894.7 mb - 0.00 in0.0 mm 0.00 in0.0 mm
10:00 AM 55.0°F12.8°C 35.1°F1.7°C 47% 2.3 mph WSW3.7 kmh WSW 2.3 mph3.7 kmh 26.42 in894.7 mb - 0.00 in0.0 mm 0.00 in0.0 mm
10:10 AM 58.0°F14.4°C 35.6°F2.0°C 43% Calm Calm 1.2 mph1.9 kmh 26.41 in894.3 mb - 0.00 in0.0 mm 0.00 in0.0 mm
10:15 AM 59.0°F15.0°C 36.5°F2.5°C 43% Calm Calm 1.2 mph1.9 kmh 26.41 in894.3 mb - 0.00 in0.0 mm 0.00 in0.0 mm
10:20 AM 58.0°F14.4°C 37.9°F3.3°C 47% 2.3 mph W3.7 kmh W 3.5 mph5.6 kmh 26.40 in894.0 mb - 0.00 in0.0 mm 0.00 in0.0 mm
10:25 AM 57.7°F14.3°C 37.6°F3.1°C 47% 2.3 mph NW3.7 kmh NW 3.5 mph5.6 kmh 26.40 in894.0 mb - 0.00 in0.0 mm 0.00 in0.0 mm
10:30 AM 57.0°F13.9°C 37.5°F3.1°C 48% 2.3 mph NNE3.7 kmh NNE 3.5 mph5.6 kmh 26.41 in894.3 mb - 0.00 in0.0 mm 0.00 in0.0 mm
10:35 AM 56.0°F13.3°C 36.6°F2.6°C 48% 1.2 mph SW1.9 kmh SW 2.3 mph3.7 kmh 26.40 in894.0 mb - 0.00 in0.0 mm 0.00 in0.0 mm
10:40 AM 57.0°F13.9°C 40.0°F4.4°C 53% 3.5 mph SW5.6 kmh SW 3.5 mph5.6 kmh 26.39 in893.7 mb - 0.00 in0.0 mm 0.00 in0.0 mm
10:45 AM 57.0°F13.9°C 36.4°F2.4°C 46% 1.2 mph NE1.9 kmh NE 1.2 mph1.9 kmh 26.40 in894.0 mb - 0.00 in0.0 mm 0.00 in0.0 mm
10:50 AM 56.3°F13.5°C 36.8°F2.7°C 48% 2.3 mph NNW3.7 kmh NNW 3.5 mph5.6 kmh 26.39 in893.7 mb - 0.00 in0.0 mm 0.00 in0.0 mm
10:55 AM 56.0°F13.3°C 37.1°F2.8°C 49% 2.3 mph NW3.7 kmh NW 3.5 mph5.6 kmh 26.39 in893.7 mb - 0.00 in0.0 mm 0.00 in0.0 mm
11:00 AM 56.0°F13.3°C 37.6°F3.1°C 50% 1.2 mph NW1.9 kmh NW 1.2 mph1.9 kmh 26.39 in893.7 mb - 0.00 in0.0 mm 0.00 in0.0 mm
11:10 AM 56.0°F13.3°C 37.1°F2.8°C 49% 2.3 mph WSW3.7 kmh WSW 2.3 mph3.7 kmh 26.39 in893.7 mb - 0.00 in0.0 mm 0.00 in0.0 mm
11:15 AM 55.0°F12.8°C 37.7°F3.2°C 52% 2.3 mph WNW3.7 kmh WNW 3.5 mph5.6 kmh 26.39 in893.7 mb - 0.00 in0.0 mm 0.00 in0.0 mm
11:20 AM 55.0°F12.8°C 37.7°F3.2°C 52% 2.3 mph NW3.7 kmh NW 3.5 mph5.6 kmh 26.39 in893.7 mb - 0.00 in0.0 mm 0.00 in0.0 mm
11:25 AM 55.0°F12.8°C 37.2°F2.9°C 51% 2.3 mph N3.7 kmh N 3.5 mph5.6 kmh 26.39 in893.7 mb - 0.00 in0.0 mm 0.00 in0.0 mm
11:30 AM 56.0°F13.3°C 36.6°F2.6°C 48% 1.2 mph NE1.9 kmh NE 1.2 mph1.9 kmh 26.39 in893.7 mb - 0.00 in0.0 mm 0.00 in0.0 mm
11:35 AM 56.0°F13.3°C 38.1°F3.4°C 51% 2.3 mph N3.7 kmh N 3.5 mph5.6 kmh 26.39 in893.7 mb - 0.00 in0.0 mm 0.00 in0.0 mm
11:40 AM 55.0°F12.8°C 37.2°F2.9°C 51% 1.2 mph ENE1.9 kmh ENE 1.2 mph1.9 kmh 26.39 in893.7 mb - 0.00 in0.0 mm 0.00 in0.0 mm
11:45 AM 55.0°F12.8°C 38.2°F3.4°C 53% 2.3 mph W3.7 kmh W 3.5 mph5.6 kmh 26.39 in893.7 mb - 0.00 in0.0 mm 0.00 in0.0 mm
11:50 AM 55.0°F12.8°C 38.2°F3.4°C 53% 3.5 mph W5.6 kmh W 3.5 mph5.6 kmh 26.39 in893.7 mb - 0.00 in0.0 mm 0.00 in0.0 mm
11:55 AM 56.0°F13.3°C 37.6°F3.1°C 50% 1.2 mph NNE1.9 kmh NNE 1.2 mph1.9 kmh 26.39 in893.7 mb - 0.00 in0.0 mm 0.00 in0.0 mm
12:00 PM 55.0°F12.8°C 36.7°F2.6°C 50% 3.5 mph WNW5.6 kmh WNW 3.5 mph5.6 kmh 26.38 in893.3 mb - 0.00 in0.0 mm 0.00 in0.0 mm
12:10 PM 55.0°F12.8°C 37.2°F2.9°C 51% 1.2 mph E1.9 kmh E 2.3 mph3.7 kmh 26.39 in893.7 mb - 0.00 in0.0 mm 0.00 in0.0 mm
12:15 PM 55.7°F13.2°C 37.4°F3.0°C 50% 2.3 mph NW3.7 kmh NW 3.5 mph5.6 kmh 26.38 in893.3 mb - 0.00 in0.0 mm 0.00 in0.0 mm
12:20 PM 56.0°F13.3°C 37.6°F3.1°C 50% 3.5 mph NW5.6 kmh NW 3.5 mph5.6 kmh 26.38 in893.3 mb - 0.00 in0.0 mm 0.00 in0.0 mm
12:25 PM 55.0°F12.8°C 39.1°F3.9°C 55% 3.5 mph WSW5.6 kmh WSW 6.9 mph11.1 kmh 26.39 in893.7 mb - 0.00 in0.0 mm 0.00 in0.0 mm
12:30 PM 55.0°F12.8°C 37.7°F3.2°C 52% 1.2 mph NE1.9 kmh NE 2.3 mph3.7 kmh 26.38 in893.3 mb - 0.00 in0.0 mm 0.00 in0.0 mm
12:35 PM 55.0°F12.8°C 38.2°F3.4°C 53% Calm Calm 1.2 mph1.9 kmh 26.38 in893.3 mb - 0.00 in0.0 mm 0.00 in0.0 mm
12:40 PM 55.0°F12.8°C 38.6°F3.7°C 54% Calm Calm -- 26.38 in893.3 mb - 0.00 in0.0 mm 0.00 in0.0 mm
12:45 PM 55.0°F12.8°C 38.6°F3.7°C 54% 1.2 mph W1.9 kmh W 1.2 mph1.9 kmh 26.38 in893.3 mb - 0.00 in0.0 mm 0.00 in0.0 mm
12:50 PM 55.0°F12.8°C 38.6°F3.7°C 54% 1.2 mph W1.9 kmh W 1.2 mph1.9 kmh 26.38 in893.3 mb - 0.00 in0.0 mm 0.00 in0.0 mm
12:55 PM 56.0°F13.3°C 38.6°F3.7°C 52% 2.3 mph WNW3.7 kmh WNW 2.3 mph3.7 kmh 26.38 in893.3 mb - 0.00 in0.0 mm 0.00 in0.0 mm
01:00 PM 55.0°F12.8°C 38.6°F3.7°C 54% Calm Calm 1.2 mph1.9 kmh 26.38 in893.3 mb - 0.00 in0.0 mm 0.00 in0.0 mm
01:10 PM 54.0°F12.2°C 37.7°F3.2°C 54% 1.2 mph NW1.9 kmh NW 2.3 mph3.7 kmh 26.37 in893.0 mb - 0.00 in0.0 mm 0.00 in0.0 mm
01:15 PM 54.0°F12.2°C 38.6°F3.7°C 56% 1.2 mph WNW1.9 kmh WNW 2.3 mph3.7 kmh 26.38 in893.3 mb - 0.00 in0.0 mm 0.00 in0.0 mm
01:20 PM 54.0°F12.2°C 39.5°F4.2°C 58% 1.2 mph W1.9 kmh W 2.3 mph3.7 kmh 26.38 in893.3 mb - 0.00 in0.0 mm 0.00 in0.0 mm
01:25 PM 54.0°F12.2°C 38.6°F3.7°C 56% 2.3 mph W3.7 kmh W 3.5 mph5.6 kmh 26.38 in893.3 mb - 0.00 in0.0 mm 0.00 in0.0 mm
01:30 PM 54.0°F12.2°C 39.1°F3.9°C 57% Calm Calm -- 26.38 in893.3 mb - 0.00 in0.0 mm 0.00 in0.0 mm
01:35 PM 54.0°F12.2°C 38.2°F3.4°C 55% Calm Calm 1.2 mph1.9 kmh 26.38 in893.3 mb - 0.00 in0.0 mm 0.00 in0.0 mm
01:40 PM 54.0°F12.2°C 38.2°F3.4°C 55% 1.2 mph WSW1.9 kmh WSW 2.3 mph3.7 kmh 26.38 in893.3 mb - 0.00 in0.0 mm 0.00 in0.0 mm
01:45 PM 54.0°F12.2°C 38.6°F3.7°C 56% 2.3 mph WSW3.7 kmh WSW 3.5 mph5.6 kmh 26.38 in893.3 mb - 0.00 in0.0 mm 0.00 in0.0 mm
01:50 PM 54.0°F12.2°C 39.1°F3.9°C 57% 3.5 mph WSW5.6 kmh WSW 3.5 mph5.6 kmh 26.38 in893.3 mb - 0.00 in0.0 mm 0.00 in0.0 mm
01:55 PM 54.0°F12.2°C 39.5°F4.2°C 58% Calm Calm -- 26.38 in893.3 mb - 0.00 in0.0 mm 0.00 in0.0 mm
02:00 PM 54.0°F12.2°C 39.5°F4.2°C 58% Calm Calm -- 26.38 in893.3 mb - 0.00 in0.0 mm 0.00 in0.0 mm
02:10 PM 53.0°F11.7°C 37.7°F3.2°C 56% Calm Calm -- 26.37 in893.0 mb - 0.00 in0.0 mm 0.00 in0.0 mm
02:15 PM 53.4°F11.9°C 38.6°F3.7°C 57% Calm Calm 1.2 mph1.9 kmh 26.37 in893.0 mb - 0.00 in0.0 mm 0.00 in0.0 mm
02:20 PM 54.0°F12.2°C 40.0°F4.4°C 59% 1.2 mph N1.9 kmh N 1.2 mph1.9 kmh 26.38 in893.3 mb - 0.00 in0.0 mm 0.00 in0.0 mm
02:25 PM 54.0°F12.2°C 40.0°F4.4°C 59% Calm Calm -- 26.38 in893.3 mb - 0.00 in0.0 mm 0.00 in0.0 mm
02:30 PM 54.0°F12.2°C 39.1°F3.9°C 57% 1.2 mph NNW1.9 kmh NNW 1.2 mph1.9 kmh 26.38 in893.3 mb - 0.00 in0.0 mm 0.00 in0.0 mm
02:35 PM 54.0°F12.2°C 40.0°F4.4°C 59% Calm Calm -- 26.38 in893.3 mb - 0.00 in0.0 mm 0.00 in0.0 mm
02:40 PM 54.0°F12.2°C 39.5°F4.2°C 58% 1.2 mph WSW1.9 kmh WSW 1.2 mph1.9 kmh 26.38 in893.3 mb - 0.00 in0.0 mm 0.00 in0.0 mm
02:45 PM 53.7°F12.1°C 39.3°F4.1°C 58% 1.2 mph W1.9 kmh W 1.2 mph1.9 kmh 26.38 in893.3 mb - 0.00 in0.0 mm 0.00 in0.0 mm
02:50 PM 53.0°F11.7°C 39.0°F3.9°C 59% 1.2 mph WNW1.9 kmh WNW 1.2 mph1.9 kmh 26.38 in893.3 mb - 0.00 in0.0 mm 0.00 in0.0 mm
02:55 PM 53.0°F11.7°C 39.9°F4.4°C 61% 1.2 mph NW1.9 kmh NW 1.2 mph1.9 kmh 26.38 in893.3 mb - 0.00 in0.0 mm 0.00 in0.0 mm
03:00 PM 53.0°F11.7°C 40.3°F4.6°C 62% 1.2 mph W1.9 kmh W 1.2 mph1.9 kmh 26.38 in893.3 mb - 0.00 in0.0 mm 0.00 in0.0 mm
03:10 PM 53.0°F11.7°C 40.3°F4.6°C 62% 2.3 mph W3.7 kmh W 3.5 mph5.6 kmh 26.37 in893.0 mb - 0.00 in0.0 mm 0.00 in0.0 mm
03:15 PM 53.0°F11.7°C 40.3°F4.6°C 62% 2.3 mph W3.7 kmh W 3.5 mph5.6 kmh 26.37 in893.0 mb - 0.00 in0.0 mm 0.00 in0.0 mm
03:20 PM 53.0°F11.7°C 40.3°F4.6°C 62% 1.2 mph NW1.9 kmh NW 1.2 mph1.9 kmh 26.37 in893.0 mb - 0.00 in0.0 mm 0.00 in0.0 mm
03:25 PM 53.0°F11.7°C 39.9°F4.4°C 61% 2.3 mph NNW3.7 kmh NNW 2.3 mph3.7 kmh 26.37 in893.0 mb - 0.00 in0.0 mm 0.00 in0.0 mm
03:30 PM 52.0°F11.1°C 40.6°F4.8°C 65% 2.3 mph NNW3.7 kmh NNW 2.3 mph3.7 kmh 26.37 in893.0 mb - 0.00 in0.0 mm 0.00 in0.0 mm
03:35 PM 53.0°F11.7°C 40.7°F4.8°C 63% 1.2 mph W1.9 kmh W 1.2 mph1.9 kmh 26.37 in893.0 mb - 0.00 in0.0 mm 0.00 in0.0 mm
03:40 PM 52.1°F11.2°C 39.9°F4.4°C 63% Calm Calm 1.2 mph1.9 kmh 26.38 in893.3 mb - 0.00 in0.0 mm 0.00 in0.0 mm
03:45 PM 52.0°F11.1°C 39.8°F4.3°C 63% Calm Calm 1.2 mph1.9 kmh 26.38 in893.3 mb - 0.00 in0.0 mm 0.00 in0.0 mm
03:50 PM 53.0°F11.7°C 39.9°F4.4°C 61% Calm Calm 1.2 mph1.9 kmh 26.37 in893.0 mb - 0.00 in0.0 mm 0.00 in0.0 mm
03:55 PM 53.0°F11.7°C 40.7°F4.8°C 63% Calm Calm 1.2 mph1.9 kmh 26.38 in893.3 mb - 0.00 in0.0 mm 0.00 in0.0 mm
04:00 PM 54.0°F12.2°C 40.4°F4.7°C 60% Calm Calm -- 26.38 in893.3 mb - 0.00 in0.0 mm 0.00 in0.0 mm
04:10 PM 54.0°F12.2°C 41.7°F5.4°C 63% 1.2 mph WNW1.9 kmh WNW 2.3 mph3.7 kmh 26.37 in893.0 mb - 0.00 in0.0 mm 0.00 in0.0 mm
04:15 PM 54.0°F12.2°C 41.7°F5.4°C 63% 1.2 mph W1.9 kmh W 2.3 mph3.7 kmh 26.37 in893.0 mb - 0.00 in0.0 mm 0.00 in0.0 mm
04:20 PM 54.0°F12.2°C 40.4°F4.7°C 60% Calm Calm 1.2 mph1.9 kmh 26.38 in893.3 mb - 0.00 in0.0 mm 0.00 in0.0 mm
04:25 PM 54.0°F12.2°C 40.0°F4.4°C 59% Calm Calm -- 26.37 in893.0 mb - 0.00 in0.0 mm 0.00 in0.0 mm
04:30 PM 54.0°F12.2°C 40.8°F4.9°C 61% Calm Calm 1.2 mph1.9 kmh 26.37 in893.0 mb - 0.00 in0.0 mm 0.00 in0.0 mm
04:35 PM 54.0°F12.2°C 40.0°F4.4°C 59% 1.2 mph WSW1.9 kmh WSW 1.2 mph1.9 kmh 26.37 in893.0 mb - 0.00 in0.0 mm 0.00 in0.0 mm
04:40 PM 54.0°F12.2°C 40.4°F4.7°C 60% 1.2 mph WSW1.9 kmh WSW 1.2 mph1.9 kmh 26.37 in893.0 mb - 0.00 in0.0 mm 0.00 in0.0 mm
04:45 PM 54.0°F12.2°C 40.8°F4.9°C 61% 1.2 mph WSW1.9 kmh WSW 1.2 mph1.9 kmh 26.37 in893.0 mb - 0.00 in0.0 mm 0.00 in0.0 mm
04:50 PM 54.0°F12.2°C 40.0°F4.4°C 59% 2.3 mph WSW3.7 kmh WSW 2.3 mph3.7 kmh 26.37 in893.0 mb - 0.00 in0.0 mm 0.00 in0.0 mm
04:55 PM 54.0°F12.2°C 40.4°F4.7°C 60% Calm Calm -- 26.37 in893.0 mb - 0.00 in0.0 mm 0.00 in0.0 mm
05:00 PM 54.0°F12.2°C 40.0°F4.4°C 59% Calm Calm -- 26.37 in893.0 mb - 0.00 in0.0 mm 0.00 in0.0 mm
05:10 PM 54.0°F12.2°C 40.0°F4.4°C 59% Calm Calm -- 26.37 in893.0 mb - 0.00 in0.0 mm 0.00 in0.0 mm
05:15 PM 54.0°F12.2°C 40.4°F4.7°C 60% Calm Calm -- 26.37 in893.0 mb - 0.00 in0.0 mm 0.00 in0.0 mm
05:20 PM 53.0°F11.7°C 39.0°F3.9°C 59% Calm Calm -- 26.37 in893.0 mb - 0.00 in0.0 mm 0.00 in0.0 mm
05:25 PM 53.0°F11.7°C 39.0°F3.9°C 59% Calm Calm -- 26.37 in893.0 mb - 0.00 in0.0 mm 0.00 in0.0 mm
05:30 PM 54.0°F12.2°C 39.5°F4.2°C 58% Calm Calm -- 26.37 in893.0 mb - 0.00 in0.0 mm 0.00 in0.0 mm
05:35 PM 55.0°F12.8°C 41.4°F5.2°C 60% Calm Calm -- 26.37 in893.0 mb - 0.00 in0.0 mm 0.00 in0.0 mm
05:40 PM 54.2°F12.3°C 41.1°F5.1°C 61% Calm Calm -- 26.37 in893.0 mb - 0.00 in0.0 mm 0.00 in0.0 mm
05:45 PM 53.0°F11.7°C 40.7°F4.8°C 63% Calm Calm -- 26.37 in893.0 mb - 0.00 in0.0 mm 0.00 in0.0 mm
05:50 PM 53.0°F11.7°C 39.5°F4.2°C 60% Calm Calm -- 26.37 in893.0 mb - 0.00 in0.0 mm 0.00 in0.0 mm
05:55 PM 53.0°F11.7°C 40.3°F4.6°C 62% Calm Calm -- 26.38 in893.3 mb - 0.00 in0.0 mm 0.00 in0.0 mm
06:00 PM 53.0°F11.7°C 41.9°F5.5°C 66% Calm Calm -- 26.37 in893.0 mb - 0.00 in0.0 mm 0.00 in0.0 mm
06:10 PM 53.0°F11.7°C 40.3°F4.6°C 62% Calm Calm -- 26.38 in893.3 mb - 0.00 in0.0 mm 0.00 in0.0 mm
06:15 PM 53.0°F11.7°C 40.7°F4.8°C 63% Calm Calm -- 26.38 in893.3 mb - 0.00 in0.0 mm 0.00 in0.0 mm
06:20 PM 53.0°F11.7°C 40.3°F4.6°C 62% Calm Calm -- 26.39 in893.7 mb - 0.00 in0.0 mm 0.00 in0.0 mm
06:25 PM 53.0°F11.7°C 41.9°F5.5°C 66% Calm Calm -- 26.38 in893.3 mb - 0.00 in0.0 mm 0.00 in0.0 mm
06:30 PM 53.0°F11.7°C 40.7°F4.8°C 63% Calm Calm -- 26.39 in893.7 mb - 0.00 in0.0 mm 0.00 in0.0 mm
06:35 PM 53.0°F11.7°C 40.7°F4.8°C 63% Calm Calm -- 26.39 in893.7 mb - 0.00 in0.0 mm 0.00 in0.0 mm
06:40 PM 53.0°F11.7°C 41.1°F5.1°C 64% Calm Calm -- 26.39 in893.7 mb - 0.00 in0.0 mm 0.00 in0.0 mm
06:45 PM 53.0°F11.7°C 43.5°F6.4°C 70% Calm Calm -- 26.38 in893.3 mb - 0.00 in0.0 mm 0.00 in0.0 mm
06:50 PM 52.0°F11.1°C 42.1°F5.6°C 69% Calm Calm -- 26.38 in893.3 mb - 0.00 in0.0 mm 0.00 in0.0 mm
06:55 PM 52.0°F11.1°C 42.1°F5.6°C 69% Calm Calm -- 26.38 in893.3 mb - 0.00 in0.0 mm 0.00 in0.0 mm
07:00 PM 52.0°F11.1°C 42.1°F5.6°C 69% Calm Calm -- 26.39 in893.7 mb - 0.00 in0.0 mm 0.00 in0.0 mm
07:10 PM 51.0°F10.6°C 41.9°F5.5°C 71% Calm Calm -- 26.39 in893.7 mb - 0.00 in0.0 mm 0.00 in0.0 mm
07:15 PM 51.0°F10.6°C 41.9°F5.5°C 71% Calm Calm -- 26.38 in893.3 mb - 0.00 in0.0 mm 0.00 in0.0 mm
07:20 PM 51.0°F10.6°C 41.6°F5.3°C 70% Calm Calm -- 26.39 in893.7 mb - 0.00 in0.0 mm 0.00 in0.0 mm
07:25 PM 51.0°F10.6°C 41.9°F5.5°C 71% Calm Calm -- 26.39 in893.7 mb - 0.00 in0.0 mm 0.00 in0.0 mm
07:30 PM 51.0°F10.6°C 43.0°F6.1°C 74% Calm Calm -- 26.39 in893.7 mb - 0.00 in0.0 mm 0.00 in0.0 mm
07:35 PM 51.0°F10.6°C 43.4°F6.3°C 75% Calm Calm -- 26.39 in893.7 mb - 0.00 in0.0 mm 0.00 in0.0 mm
07:40 PM 53.0°F11.7°C 41.9°F5.5°C 66% Calm Calm -- 26.38 in893.3 mb - 0.00 in0.0 mm 0.00 in0.0 mm
07:45 PM 50.0°F10.0°C 42.4°F5.8°C 75% Calm Calm -- 26.39 in893.7 mb - 0.00 in0.0 mm 0.00 in0.0 mm
07:50 PM 51.0°F10.6°C 43.0°F6.1°C 74% Calm Calm -- 26.39 in893.7 mb - 0.00 in0.0 mm 0.00 in0.0 mm
07:55 PM 51.0°F10.6°C 42.3°F5.7°C 72% Calm Calm -- 26.39 in893.7 mb - 0.00 in0.0 mm 0.00 in0.0 mm
08:00 PM 50.5°F10.3°C 41.8°F5.4°C 72% Calm Calm -- 26.39 in893.7 mb - 0.00 in0.0 mm 0.00 in0.0 mm
08:10 PM 50.0°F10.0°C 41.7°F5.4°C 73% Calm Calm -- 26.40 in894.0 mb - 0.00 in0.0 mm 0.00 in0.0 mm
08:15 PM 50.0°F10.0°C 42.4°F5.8°C 75% Calm Calm -- 26.40 in894.0 mb - 0.00 in0.0 mm 0.00 in0.0 mm
08:20 PM 49.0°F9.4°C 41.1°F5.1°C 74% Calm Calm -- 26.40 in894.0 mb - 0.00 in0.0 mm 0.00 in0.0 mm
08:25 PM 50.0°F10.0°C 41.7°F5.4°C 73% Calm Calm -- 26.39 in893.7 mb - 0.00 in0.0 mm 0.00 in0.0 mm
08:30 PM 50.0°F10.0°C 42.0°F5.6°C 74% Calm Calm -- 26.40 in894.0 mb - 0.00 in0.0 mm 0.00 in0.0 mm
08:35 PM 50.0°F10.0°C 42.0°F5.6°C 74% Calm Calm -- 26.40 in894.0 mb - 0.00 in0.0 mm 0.00 in0.0 mm
08:40 PM 50.0°F10.0°C 41.7°F5.4°C 73% Calm Calm -- 26.40 in894.0 mb - 0.00 in0.0 mm 0.00 in0.0 mm
08:45 PM 50.0°F10.0°C 42.7°F5.9°C 76% Calm Calm -- 26.41 in894.3 mb - 0.00 in0.0 mm 0.00 in0.0 mm
08:50 PM 50.0°F10.0°C 42.7°F5.9°C 76% Calm Calm -- 26.40 in894.0 mb - 0.00 in0.0 mm 0.00 in0.0 mm
08:55 PM 50.0°F10.0°C 42.4°F5.8°C 75% Calm Calm -- 26.41 in894.3 mb - 0.00 in0.0 mm 0.00 in0.0 mm
09:00 PM 50.0°F10.0°C 42.7°F5.9°C 76% Calm Calm -- 26.41 in894.3 mb - 0.00 in0.0 mm 0.00 in0.0 mm
09:10 PM 50.0°F10.0°C 42.0°F5.6°C 74% Calm Calm -- 26.41 in894.3 mb - 0.00 in0.0 mm 0.00 in0.0 mm
09:15 PM 49.0°F9.4°C 41.1°F5.1°C 74% Calm Calm -- 26.41 in894.3 mb - 0.00 in0.0 mm 0.00 in0.0 mm
09:20 PM 49.0°F9.4°C 41.4°F5.2°C 75% Calm Calm -- 26.41 in894.3 mb - 0.00 in0.0 mm 0.00 in0.0 mm
09:25 PM 49.0°F9.4°C 41.8°F5.4°C 76% Calm Calm -- 26.41 in894.3 mb - 0.00 in0.0 mm 0.00 in0.0 mm
09:30 PM 49.0°F9.4°C 41.8°F5.4°C 76% Calm Calm -- 26.40 in894.0 mb - 0.00 in0.0 mm 0.00 in0.0 mm
09:35 PM 49.0°F9.4°C 41.8°F5.4°C 76% Calm Calm -- 26.41 in894.3 mb - 0.00 in0.0 mm 0.00 in0.0 mm
09:40 PM 49.0°F9.4°C 41.8°F5.4°C 76% Calm Calm -- 26.41 in894.3 mb - 0.00 in0.0 mm 0.00 in0.0 mm
09:45 PM 49.0°F9.4°C 41.8°F5.4°C 76% Calm Calm -- 26.41 in894.3 mb - 0.00 in0.0 mm 0.00 in0.0 mm
09:50 PM 49.0°F9.4°C 42.1°F5.6°C 77% Calm Calm -- 26.41 in894.3 mb - 0.00 in0.0 mm 0.00 in0.0 mm
09:55 PM 49.0°F9.4°C 41.8°F5.4°C 76% Calm Calm -- 26.41 in894.3 mb - 0.00 in0.0 mm 0.00 in0.0 mm
10:00 PM 49.0°F9.4°C 42.4°F5.8°C 78% Calm Calm -- 26.41 in894.3 mb - 0.00 in0.0 mm 0.00 in0.0 mm
10:10 PM 48.4°F9.1°C 41.9°F5.5°C 78% Calm Calm -- 26.42 in894.7 mb - 0.00 in0.0 mm 0.00 in0.0 mm
10:15 PM 48.0°F8.9°C 41.5°F5.3°C 78% Calm Calm -- 26.42 in894.7 mb - 0.00 in0.0 mm 0.00 in0.0 mm
10:20 PM 48.0°F8.9°C 41.1°F5.1°C 77% Calm Calm -- 26.41 in894.3 mb - 0.00 in0.0 mm 0.00 in0.0 mm
10:25 PM 48.0°F8.9°C 41.1°F5.1°C 77% Calm Calm -- 26.41 in894.3 mb - 0.00 in0.0 mm 0.00 in0.0 mm
10:30 PM 48.0°F8.9°C 41.1°F5.1°C 77% Calm Calm -- 26.41 in894.3 mb - 0.00 in0.0 mm 0.00 in0.0 mm
10:35 PM 48.0°F8.9°C 41.1°F5.1°C 77% Calm Calm -- 26.41 in894.3 mb - 0.00 in0.0 mm 0.00 in0.0 mm
10:40 PM 48.0°F8.9°C 41.1°F5.1°C 77% Calm Calm -- 26.41 in894.3 mb - 0.00 in0.0 mm 0.00 in0.0 mm
10:45 PM 48.0°F8.9°C 41.5°F5.3°C 78% Calm Calm -- 26.41 in894.3 mb - 0.00 in0.0 mm 0.00 in0.0 mm
10:50 PM 48.0°F8.9°C 41.8°F5.4°C 79% Calm Calm -- 26.41 in894.3 mb - 0.00 in0.0 mm 0.00 in0.0 mm
10:55 PM 48.0°F8.9°C 41.5°F5.3°C 78% Calm Calm -- 26.41 in894.3 mb - 0.00 in0.0 mm 0.00 in0.0 mm
11:00 PM 48.0°F8.9°C 41.8°F5.4°C 79% Calm Calm -- 26.41 in894.3 mb - 0.00 in0.0 mm 0.00 in0.0 mm
11:10 PM 49.0°F9.4°C 42.8°F6.0°C 79% Calm Calm -- 26.41 in894.3 mb - 0.00 in0.0 mm 0.00 in0.0 mm
11:15 PM 49.0°F9.4°C 43.1°F6.2°C 80% Calm Calm -- 26.41 in894.3 mb - 0.00 in0.0 mm 0.00 in0.0 mm
11:20 PM 49.0°F9.4°C 43.1°F6.2°C 80% Calm Calm -- 26.41 in894.3 mb - 0.00 in0.0 mm 0.00 in0.0 mm
11:25 PM 48.0°F8.9°C 42.4°F5.8°C 81% Calm Calm -- 26.41 in894.3 mb - 0.00 in0.0 mm 0.00 in0.0 mm
11:30 PM 48.0°F8.9°C 42.1°F5.6°C 80% Calm Calm -- 26.41 in894.3 mb - 0.00 in0.0 mm 0.00 in0.0 mm
11:35 PM 48.0°F8.9°C 41.5°F5.3°C 78% Calm Calm -- 26.41 in894.3 mb - 0.00 in0.0 mm 0.00 in0.0 mm
11:40 PM 48.0°F8.9°C 41.5°F5.3°C 78% Calm Calm -- 26.41 in894.3 mb - 0.00 in0.0 mm 0.00 in0.0 mm
11:45 PM 48.0°F8.9°C 41.5°F5.3°C 78% Calm Calm -- 26.41 in894.3 mb - 0.00 in0.0 mm 0.00 in0.0 mm
11:50 PM 48.0°F8.9°C 41.5°F5.3°C 78% Calm Calm -- 26.41 in894.3 mb - 0.00 in0.0 mm 0.00 in0.0 mm
11:55 PM 48.0°F8.9°C 41.5°F5.3°C 78% Calm Calm -- 26.41 in894.3 mb - 0.00 in0.0 mm 0.00 in0.0 mm